Time;durP1;ratioP1;P1;durP2;ratioP2;P2;SDS_P1;SDS_P2;PMS_P1;PMS_P2;Temp;Humidity;BMP_temperature;BMP_pressure;BME280_temperature;BME280_humidity;BME280_pressure;Samples;Min_cycle;Max_cycle;Signal;HPM_P1;HPM_P2
2022/12/31 00:00:17;;;;;;;;;;;;;;;9.42;86.19;101733.75;4902726;29;19915;-80
2022/12/31 00:03:01;;;;;;;;;;;;;;;9.43;86.13;101746.25;4916838;29;19915;-82
2022/12/31 00:05:46;;;;;;;;;;;;;;;9.40;86.68;101740.53;4900337;29;19915;-80
2022/12/31 00:08:30;;;;;;;;;;;;;;;9.33;86.68;101740.88;4922066;29;19915;-78
2022/12/31 00:11:15;;;;;;;;;;;;;;;9.37;86.76;101743.84;4919659;29;20389;-79
2022/12/31 00:13:59;;;;;;;;;;;;;;;9.38;86.79;101742.75;4908402;29;20385;-81
2022/12/31 00:16:44;;;;;;;;;;;;;;;9.36;86.36;101734.06;4915558;29;19919;-80
2022/12/31 00:19:28;;;;;;;;;;;;;;;9.29;86.53;101737.13;4919853;29;19915;-79
2022/12/31 00:22:12;;;;;;;;;;;;;;;9.32;86.28;101741.97;4935415;29;20392;-81
2022/12/31 00:24:57;;;;;;;;;;;;;;;9.34;86.31;101739.78;4916706;29;19915;-80
2022/12/31 00:27:41;;;;;;;;;;;;;;;9.35;86.25;101733.25;4929410;29;19937;-82
2022/12/31 00:30:26;;;;;;;;;;;;;;;9.32;86.28;101730.28;4935924;29;20376;-81
2022/12/31 00:33:10;;;;;;;;;;;;;;;9.28;85.86;101730.06;4935521;29;19915;-81
2022/12/31 00:36:02;;;;;;;;;;;;;;;9.24;85.83;101728.19;4916725;29;19919;-81
2022/12/31 00:38:47;;;;;;;;;;;;;;;9.15;86.42;101738.00;4934981;29;19915;-80
2022/12/31 00:41:33;;;;;;;;;;;;;;;8.90;86.24;101744.38;4936627;29;20380;-80
2022/12/31 00:44:17;;;;;;;;;;;;;;;9.01;87.37;101749.47;4938452;29;20385;-80
2022/12/31 00:47:02;;;;;;;;;;;;;;;9.08;86.45;101745.66;4934342;29;19914;-79
2022/12/31 00:49:46;;;;;;;;;;;;;;;9.00;86.84;101749.75;4971576;23;19926;-81
2022/12/31 00:52:30;;;;;;;;;;;;;;;9.04;85.71;101750.81;4965411;28;19918;-79
2022/12/31 00:55:15;;;;;;;;;;;;;;;9.08;85.47;101741.03;4966176;28;19922;-78
2022/12/31 00:58:00;;;;;;;;;;;;;;;9.00;86.00;101731.56;4969245;28;19914;-77
2022/12/31 01:00:44;;;;;;;;;;;;;;;9.03;86.03;101749.22;4955005;28;19915;-78
2022/12/31 01:03:28;;;;;;;;;;;;;;;8.99;86.17;101751.63;4955660;29;19914;-77
2022/12/31 01:06:13;;;;;;;;;;;;;;;9.07;85.90;101739.41;4959515;28;19918;-78
2022/12/31 01:08:58;;;;;;;;;;;;;;;8.98;86.05;101760.91;4950947;28;20395;-77
2022/12/31 01:11:43;;;;;;;;;;;;;;;9.04;85.80;101771.72;4956032;29;20404;-77
2022/12/31 01:14:27;;;;;;;;;;;;;;;9.07;85.80;101771.97;4948884;29;19915;-77
2022/12/31 01:17:12;;;;;;;;;;;;;;;9.06;84.88;101774.94;4949127;29;19919;-77
2022/12/31 01:19:57;;;;;;;;;;;;;;;8.97;84.54;101772.00;4950294;28;19914;-77
2022/12/31 01:22:42;;;;;;;;;;;;;;;8.96;84.76;101787.47;4945621;29;19914;-77
2022/12/31 01:25:26;;;;;;;;;;;;;;;9.00;84.43;101793.97;4952801;29;19914;-77
2022/12/31 01:28:10;;;;;;;;;;;;;;;9.10;84.33;101793.09;4955953;28;19914;-77
2022/12/31 01:30:55;;;;;;;;;;;;;;;9.04;83.92;101802.34;4955157;29;19914;-77
2022/12/31 01:33:40;;;;;;;;;;;;;;;9.04;83.72;101799.63;4954383;28;19915;-79
2022/12/31 01:36:26;;;;;;;;;;;;;;;9.10;84.27;101797.72;4951211;28;19948;-77
2022/12/31 01:39:11;;;;;;;;;;;;;;;9.12;83.97;101799.06;4955254;28;19914;-78
2022/12/31 01:41:56;;;;;;;;;;;;;;;9.21;83.81;101802.00;4958350;28;20397;-78
2022/12/31 01:44:41;;;;;;;;;;;;;;;9.25;83.58;101801.16;4947942;29;20323;-77
2022/12/31 01:47:36;;;;;;;;;;;;;;;9.24;83.56;101815.03;4955068;29;19914;-77
2022/12/31 01:50:26;;;;;;;;;;;;;;;9.23;83.92;101813.41;4936855;29;20369;-78
2022/12/31 01:53:10;;;;;;;;;;;;;;;9.12;84.45;101818.06;4936290;29;19914;-77
2022/12/31 01:55:57;;;;;;;;;;;;;;;9.11;84.04;101816.44;4944931;28;20303;-77
2022/12/31 01:58:44;;;;;;;;;;;;;;;9.00;85.01;101817.56;4948046;28;19915;-77
2022/12/31 02:01:30;;;;;;;;;;;;;;;9.02;85.11;101812.69;4955913;28;19915;-77
2022/12/31 02:04:15;;;;;;;;;;;;;;;8.98;86.05;101822.47;4955807;29;19914;-77
2022/12/31 02:07:01;;;;;;;;;;;;;;;8.78;86.04;101823.34;4936799;29;19915;-77
2022/12/31 02:09:46;;;;;;;;;;;;;;;8.92;85.82;101829.81;4936637;29;19915;-78
2022/12/31 02:12:30;;;;;;;;;;;;;;;8.95;86.50;101836.56;4937548;29;19915;-77
2022/12/31 02:15:16;;;;;;;;;;;;;;;9.11;85.19;101840.84;4950566;28;20302;-77
2022/12/31 02:18:06;;;;;;;;;;;;;;;9.21;84.63;101840.81;4936546;29;20503;-78
2022/12/31 02:21:12;;;;;;;;;;;;;;;9.02;84.49;101842.53;4936415;29;19915;-77
2022/12/31 02:24:05;;;;;;;;;;;;;;;8.84;85.10;101848.53;4937602;29;19915;-77
2022/12/31 02:27:07;;;;;;;;;;;;;;;8.68;85.15;101849.69;4947756;29;19918;-78
2022/12/31 02:30:01;;;;;;;;;;;;;;;8.74;85.08;101845.84;4957394;28;19914;-77
2022/12/31 02:32:48;;;;;;;;;;;;;;;8.43;85.36;101840.50;4960671;28;20299;-78
2022/12/31 02:35:56;;;;;;;;;;;;;;;8.60;85.04;101840.19;4959099;28;19922;-77
2022/12/31 02:38:43;;;;;;;;;;;;;;;8.29;85.42;101838.56;4951794;28;19914;-77
2022/12/31 02:44:33;;;;;;;;;;;;;;;8.48;84.38;101835.06;4944339;29;19915;-77
2022/12/31 02:47:41;;;;;;;;;;;;;;;8.27;85.81;101832.63;4935779;29;20320;-77
2022/12/31 02:50:37;;;;;;;;;;;;;;;8.38;85.81;101850.56;4946325;29;19918;-77
2022/12/31 02:53:28;;;;;;;;;;;;;;;8.51;85.54;101856.22;4952199;28;19914;-78
2022/12/31 02:56:12;;;;;;;;;;;;;;;8.50;84.46;101865.44;4954525;29;19918;-77
2022/12/31 03:02:14;;;;;;;;;;;;;;;8.71;82.53;101865.41;4954899;29;20068;-77
2022/12/31 03:05:00;;;;;;;;;;;;;;;8.65;82.38;101867.31;4940283;28;20307;-77
2022/12/31 03:07:45;;;;;;;;;;;;;;;8.77;82.44;101869.72;4935663;29;19914;-77
2022/12/31 03:10:29;;;;;;;;;;;;;;;8.67;81.80;101873.28;4935413;29;19915;-77
2022/12/31 03:13:13;;;;;;;;;;;;;;;8.53;82.69;101870.28;4935337;29;19918;-77
2022/12/31 03:15:58;;;;;;;;;;;;;;;8.66;82.61;101862.69;4952547;29;19919;-77
2022/12/31 03:28:10;;;;;;;;;;;;;;;8.79;82.60;101859.41;4935333;29;19914;-77
2022/12/31 03:30:57;;;;;;;;;;;;;;;8.94;81.64;101859.34;4935318;29;19915;-77
2022/12/31 03:33:41;;;;;;;;;;;;;;;9.01;80.36;101851.75;4934979;29;19915;-77
2022/12/31 03:36:26;;;;;;;;;;;;;;;8.86;80.45;101851.81;4949258;28;20376;-77
2022/12/31 03:39:10;;;;;;;;;;;;;;;8.77;81.73;101848.03;4942210;28;20324;-77
2022/12/31 03:41:55;;;;;;;;;;;;;;;8.83;82.25;101857.78;4947851;29;19914;-77
2022/12/31 03:44:39;;;;;;;;;;;;;;;8.74;81.88;101857.50;4954093;29;19915;-77
2022/12/31 03:47:23;;;;;;;;;;;;;;;8.32;83.05;101847.03;4955534;28;19926;-77
2022/12/31 03:50:09;;;;;;;;;;;;;;;8.58;83.37;101856.72;4954017;29;19914;-78
2022/12/31 03:52:53;;;;;;;;;;;;;;;8.52;82.68;101852.44;4954321;29;19922;-77
2022/12/31 03:55:38;;;;;;;;;;;;;;;8.29;83.33;101842.09;4954624;28;19918;-78
2022/12/31 03:58:22;;;;;;;;;;;;;;;8.43;83.98;101845.91;4935525;29;19915;-77
2022/12/31 04:01:06;;;;;;;;;;;;;;;8.42;84.24;101855.16;4943133;29;20380;-78
2022/12/31 04:03:51;;;;;;;;;;;;;;;8.65;83.28;101861.06;4937126;29;19915;-77
2022/12/31 04:06:35;;;;;;;;;;;;;;;8.61;82.59;101866.22;4941070;29;19914;-77
2022/12/31 04:09:20;;;;;;;;;;;;;;;8.54;83.90;101858.38;4953998;29;19914;-77
2022/12/31 04:12:04;;;;;;;;;;;;;;;8.57;83.53;101867.88;4954192;29;19918;-77
2022/12/31 04:14:49;;;;;;;;;;;;;;;8.59;83.22;101865.69;4954756;28;20287;-77
2022/12/31 04:17:34;;;;;;;;;;;;;;;8.54;83.00;101861.06;4947640;29;19918;-77
2022/12/31 04:20:19;;;;;;;;;;;;;;;8.63;83.15;101864.06;4939291;29;19914;-77
2022/12/31 04:23:04;;;;;;;;;;;;;;;8.81;82.79;101866.19;4938452;29;20372;-77
2022/12/31 04:25:48;;;;;;;;;;;;;;;8.77;82.36;101881.38;4943386;29;19914;-77
2022/12/31 04:28:32;;;;;;;;;;;;;;;8.74;82.55;101878.38;4952271;29;19914;-77
2022/12/31 04:31:16;;;;;;;;;;;;;;;8.76;82.09;101873.53;4957589;29;20291;-77
2022/12/31 04:34:01;;;;;;;;;;;;;;;8.95;81.75;101893.53;4957093;29;19914;-77
2022/12/31 04:36:45;;;;;;;;;;;;;;;8.75;82.55;101901.72;4957528;29;19919;-77
2022/12/31 04:39:29;;;;;;;;;;;;;;;8.71;82.83;101898.75;4939003;29;20323;-77
2022/12/31 04:42:14;;;;;;;;;;;;;;;8.80;82.17;101905.25;4938367;29;20380;-77
2022/12/31 04:44:58;;;;;;;;;;;;;;;8.72;82.66;101900.38;4940931;29;19915;-77
2022/12/31 04:47:43;;;;;;;;;;;;;;;8.64;83.48;101908.22;4939167;29;19914;-77
2022/12/31 04:50:27;;;;;;;;;;;;;;;8.63;83.08;101920.19;4956770;29;19922;-77
2022/12/31 04:53:12;;;;;;;;;;;;;;;8.62;83.56;101921.28;4959904;28;19914;-77
2022/12/31 04:55:56;;;;;;;;;;;;;;;8.55;83.74;101916.94;4957134;29;19919;-77
2022/12/31 04:58:41;;;;;;;;;;;;;;;8.55;83.11;101929.66;4951330;29;19915;-77
2022/12/31 05:01:26;;;;;;;;;;;;;;;8.52;83.20;101925.63;4937983;29;19914;-77
2022/12/31 05:04:10;;;;;;;;;;;;;;;8.54;84.02;101931.56;4939087;29;19914;-77
2022/12/31 05:06:55;;;;;;;;;;;;;;;8.62;83.09;101935.63;4937869;29;19915;-76
2022/12/31 05:09:39;;;;;;;;;;;;;;;8.73;82.75;101953.53;4947034;29;19914;-77
2022/12/31 05:12:24;;;;;;;;;;;;;;;8.66;82.98;101961.13;4958666;28;19919;-77
2022/12/31 05:15:08;;;;;;;;;;;;;;;8.67;82.73;101960.03;4956719;28;19915;-77
2022/12/31 05:17:53;;;;;;;;;;;;;;;8.67;82.42;101956.50;4956901;29;19918;-77
2022/12/31 05:20:37;;;;;;;;;;;;;;;8.68;82.49;101955.44;4942312;29;19915;-78
2022/12/31 05:23:22;;;;;;;;;;;;;;;8.61;83.10;101955.69;4937421;29;19914;-77
2022/12/31 05:26:06;;;;;;;;;;;;;;;8.62;83.30;101959.22;4937496;29;19914;-77
2022/12/31 05:28:51;;;;;;;;;;;;;;;8.67;83.58;101960.03;4939671;29;19919;-78
2022/12/31 05:31:35;;;;;;;;;;;;;;;8.53;84.71;101959.75;4955681;29;19915;-78
2022/12/31 05:34:19;;;;;;;;;;;;;;;8.50;84.36;101973.03;4956487;29;19919;-78
2022/12/31 05:37:04;;;;;;;;;;;;;;;8.43;85.13;101976.00;4956645;29;19922;-80
2022/12/31 05:39:48;;;;;;;;;;;;;;;8.35;86.50;101981.16;4955277;29;20295;-78
2022/12/31 05:42:33;;;;;;;;;;;;;;;8.50;84.64;101983.88;4937375;29;19918;-78
2022/12/31 05:45:18;;;;;;;;;;;;;;;8.51;84.37;101991.75;4937249;29;19911;-78
2022/12/31 05:48:03;;;;;;;;;;;;;;;8.44;85.16;102002.03;4951967;28;19915;-78
2022/12/31 05:50:48;;;;;;;;;;;;;;;8.61;82.98;101993.66;4942414;29;19914;-78
2022/12/31 05:53:33;;;;;;;;;;;;;;;8.60;82.55;101994.72;4956082;29;20295;-78
2022/12/31 05:56:19;;;;;;;;;;;;;;;8.54;82.37;101983.06;4956166;29;19918;-78
2022/12/31 05:59:04;;;;;;;;;;;;;;;8.64;81.71;101995.00;4956197;29;20299;-78
2022/12/31 06:01:48;;;;;;;;;;;;;;;8.65;81.83;101994.72;4947665;29;19915;-78
2022/12/31 06:04:32;;;;;;;;;;;;;;;8.58;81.39;101997.72;4956184;29;19914;-78
2022/12/31 06:07:17;;;;;;;;;;;;;;;8.82;81.81;101997.19;4956226;28;19914;-78
2022/12/31 06:10:02;;;;;;;;;;;;;;;8.73;81.62;101998.81;4956064;29;19915;-79
2022/12/31 06:12:46;;;;;;;;;;;;;;;8.64;82.43;102001.25;4941136;29;19915;-79
2022/12/31 06:15:31;;;;;;;;;;;;;;;8.62;82.36;102008.03;4937015;29;20308;-78
2022/12/31 06:18:15;;;;;;;;;;;;;;;8.34;83.62;102012.88;4936999;29;19919;-79
2022/12/31 06:21:00;;;;;;;;;;;;;;;8.60;82.54;102013.72;4938611;29;19915;-78
2022/12/31 06:23:44;;;;;;;;;;;;;;;8.58;82.35;102019.41;4949877;29;20299;-78
2022/12/31 06:26:29;;;;;;;;;;;;;;;8.61;82.61;102018.06;4958491;28;19914;-79
2022/12/31 06:29:13;;;;;;;;;;;;;;;8.58;82.71;102024.81;4946395;28;20131;-79
2022/12/31 06:31:58;;;;;;;;;;;;;;;8.58;83.02;102030.25;4949152;29;19914;-78
2022/12/31 06:34:42;;;;;;;;;;;;;;;8.63;82.99;102025.94;4951587;29;19918;-78
2022/12/31 06:37:27;;;;;;;;;;;;;;;8.71;82.76;102026.19;4954222;28;19922;-79
2022/12/31 06:40:12;;;;;;;;;;;;;;;8.56;83.41;102039.75;4947754;29;19914;-78
2022/12/31 06:42:56;;;;;;;;;;;;;;;8.63;83.56;102042.19;4944668;28;19915;-78
2022/12/31 06:45:41;;;;;;;;;;;;;;;8.75;83.29;102048.16;4943613;29;20372;-78
2022/12/31 06:48:25;;;;;;;;;;;;;;;8.67;82.80;102049.53;4946186;29;19915;-78
2022/12/31 06:51:11;;;;;;;;;;;;;;;8.78;82.87;102044.94;4982958;23;19922;-75
2022/12/31 06:53:56;;;;;;;;;;;;;;;8.62;83.44;102056.84;4957245;28;19926;-74
2022/12/31 06:56:40;;;;;;;;;;;;;;;8.52;84.38;102058.44;4961180;28;19918;-75
2022/12/31 06:59:26;;;;;;;;;;;;;;;8.70;83.25;102067.13;4958855;28;19915;-74
2022/12/31 07:02:14;;;;;;;;;;;;;;;8.64;83.88;102070.91;4957019;28;20304;-75
2022/12/31 07:05:11;;;;;;;;;;;;;;;8.63;83.70;102070.13;4955563;28;19918;-76
2022/12/31 07:08:13;;;;;;;;;;;;;;;8.80;82.84;102076.09;4965403;28;19918;-76
2022/12/31 07:11:03;;;;;;;;;;;;;;;8.74;83.58;102082.59;4955468;29;19915;-76
2022/12/31 07:14:05;;;;;;;;;;;;;;;8.77;83.79;102087.50;5111767;27;19912;-77
2022/12/31 07:16:50;;;;;;;;;;;;;;;8.71;84.08;102088.56;5110341;28;19920;-75
2022/12/31 07:19:34;;;;;;;;;;;;;;;8.86;83.49;102096.72;5111082;28;19939;-78
2022/12/31 07:22:19;;;;;;;;;;;;;;;8.87;83.44;102103.78;5109764;28;19923;-74
2022/12/31 07:25:05;;;;;;;;;;;;;;;8.90;83.71;102116.81;5109555;28;19927;-76
2022/12/31 07:27:56;;;;;;;;;;;;;;;8.88;83.69;102120.88;5108746;28;19916;-74
2022/12/31 07:31:00;;;;;;;;;;;;;;;8.92;83.02;102121.97;5110668;28;19939;-75
2022/12/31 07:33:55;;;;;;;;;;;;;;;8.92;83.38;102121.97;5109009;28;19920;-74
2022/12/31 07:36:46;;;;;;;;;;;;;;;9.02;83.04;102121.97;5113047;28;19923;-74
2022/12/31 07:39:44;;;;;;;;;;;;;;;8.99;82.43;102125.22;5106897;28;19916;-74
2022/12/31 07:42:37;;;;;;;;;;;;;;;9.17;82.15;102124.69;5109414;28;19920;-74
2022/12/31 07:45:27;;;;;;;;;;;;;;;9.04;82.75;102121.72;5109629;28;19916;-75
2022/12/31 07:48:23;;;;;;;;;;;;;;;9.07;83.24;102123.88;5104985;28;19916;-75
2022/12/31 07:51:08;;;;;;;;;;;;;;;9.21;82.38;102124.97;5089005;28;19917;-74
2022/12/31 07:53:53;;;;;;;;;;;;;;;9.17;82.45;102132.84;5089238;28;19920;-74
2022/12/31 07:56:37;;;;;;;;;;;;;;;9.12;82.41;102138.25;5089560;28;19917;-76
2022/12/31 07:59:51;;;;;;;;;;;;;;;9.33;82.60;102145.34;5102186;28;19920;-74
2022/12/31 08:02:36;;;;;;;;;;;;;;;9.20;82.00;102150.47;5101822;28;19924;-76
2022/12/31 08:05:23;;;;;;;;;;;;;;;9.17;83.22;102157.25;5106885;28;19916;-80
2022/12/31 08:08:08;;;;;;;;;;;;;;;9.23;83.39;102161.63;5109372;28;19916;-79
2022/12/31 08:10:52;;;;;;;;;;;;;;;9.27;82.83;102162.69;5102665;28;19916;-77
2022/12/31 08:13:38;;;;;;;;;;;;;;;9.13;82.45;102164.31;5108022;28;20697;-78
2022/12/31 08:16:22;;;;;;;;;;;;;;;9.10;84.50;102164.84;5092133;28;20542;-80
2022/12/31 08:19:14;;;;;;;;;;;;;;;9.28;83.27;102175.19;5089891;28;19923;-80
2022/12/31 08:22:13;;;;;;;;;;;;;;;9.45;82.40;102175.72;5092957;28;19923;-78
2022/12/31 08:25:04;;;;;;;;;;;;;;;9.47;82.15;102188.22;5087395;28;19916;-78
2022/12/31 08:27:55;;;;;;;;;;;;;;;9.39;82.44;102176.81;5095361;28;19916;-79
2022/12/31 08:30:48;;;;;;;;;;;;;;;9.37;82.54;102187.13;5096441;28;20330;-79
2022/12/31 08:33:39;;;;;;;;;;;;;;;9.12;83.16;102181.69;5094952;28;19920;-78
2022/12/31 08:36:38;;;;;;;;;;;;;;;9.08;83.39;102185.22;5094359;28;19916;-79
2022/12/31 08:39:32;;;;;;;;;;;;;;;9.29;83.17;102182.25;5095178;28;19919;-79
2022/12/31 08:42:33;;;;;;;;;;;;;;;9.20;84.06;102185.75;5088740;28;19916;-79
2022/12/31 08:45:38;;;;;;;;;;;;;;;9.50;83.56;102201.28;5087651;28;19916;-79
2022/12/31 08:48:40;;;;;;;;;;;;;;;9.60;82.32;102198.56;5097227;28;19915;-80
2022/12/31 08:51:25;;;;;;;;;;;;;;;9.60;81.98;102199.34;5090620;28;19916;-79
2022/12/31 08:54:11;;;;;;;;;;;;;;;9.48;82.83;102206.16;5095519;28;19920;-80
2022/12/31 08:57:14;;;;;;;;;;;;;;;9.45;82.50;102202.88;5084324;28;19916;-80
2022/12/31 09:00:09;;;;;;;;;;;;;;;9.33;83.04;102210.47;5092408;28;20306;-81
2022/12/31 09:02:57;;;;;;;;;;;;;;;9.48;82.92;102214.28;5094630;28;19924;-78
2022/12/31 09:05:47;;;;;;;;;;;;;;;9.47;82.34;102220.78;5092217;28;20311;-79
2022/12/31 09:08:38;;;;;;;;;;;;;;;9.59;82.80;102213.22;5087337;28;19916;-79
2022/12/31 09:11:38;;;;;;;;;;;;;;;9.50;82.60;102210.19;5091577;28;19916;-79
2022/12/31 09:14:28;;;;;;;;;;;;;;;9.53;82.39;102208.84;5110158;28;20331;-78
2022/12/31 09:17:16;;;;;;;;;;;;;;;9.62;82.29;102215.38;5092491;28;19916;-78
2022/12/31 09:20:03;;;;;;;;;;;;;;;9.72;82.54;102212.66;5094230;28;19923;-78
2022/12/31 09:22:48;;;;;;;;;;;;;;;9.64;81.96;102211.31;5094572;28;19916;-79
2022/12/31 09:25:37;;;;;;;;;;;;;;;9.70;82.37;102220.28;5094196;28;19916;-78
2022/12/31 09:28:41;;;;;;;;;;;;;;;9.62;82.26;102207.22;5085968;28;20302;-80
2022/12/31 09:31:46;;;;;;;;;;;;;;;9.76;82.34;102224.59;5089561;28;20299;-78
2022/12/31 09:34:33;;;;;;;;;;;;;;;9.90;81.69;102224.88;5089059;28;19924;-79
2022/12/31 09:37:29;;;;;;;;;;;;;;;9.94;81.30;102226.78;5100861;28;19916;-78
2022/12/31 09:40:28;;;;;;;;;;;;;;;9.99;81.18;102232.19;5079600;28;20298;-79
2022/12/31 09:43:32;;;;;;;;;;;;;;;10.13;80.53;102230.53;5088578;28;20302;-78
2022/12/31 09:46:19;;;;;;;;;;;;;;;10.07;80.26;102236.25;5096966;28;19916;-81
2022/12/31 09:49:07;;;;;;;;;;;;;;;10.16;79.86;102240.06;5085478;28;19920;-79
2022/12/31 09:51:59;;;;;;;;;;;;;;;10.08;79.68;102241.41;5096660;28;19924;-79
2022/12/31 09:54:59;;;;;;;;;;;;;;;10.11;80.75;102243.56;5089430;28;19924;-78
2022/12/31 09:57:47;;;;;;;;;;;;;;;10.16;79.78;102242.78;5088585;28;20386;-80
2022/12/31 10:00:34;;;;;;;;;;;;;;;10.14;79.53;102243.03;5084028;28;19917;-79
2022/12/31 10:03:31;;;;;;;;;;;;;;;10.19;79.29;102245.78;5085338;28;19916;-76
2022/12/31 10:06:15;;;;;;;;;;;;;;;10.21;79.43;102238.16;5085863;28;19920;-80
2022/12/31 10:09:09;;;;;;;;;;;;;;;10.26;79.03;102246.28;5085177;28;19916;-79
2022/12/31 10:12:12;;;;;;;;;;;;;;;10.18;79.41;102248.78;5088485;28;19924;-80
2022/12/31 10:15:12;;;;;;;;;;;;;;;10.31;79.48;102241.97;5083675;28;19920;-80
2022/12/31 10:18:03;;;;;;;;;;;;;;;10.22;80.05;102241.69;5092368;28;19946;-81
2022/12/31 10:20:50;;;;;;;;;;;;;;;10.36;79.68;102234.59;5093699;28;19916;-80
2022/12/31 10:23:44;;;;;;;;;;;;;;;10.46;79.66;102228.31;5094930;28;20394;-81
2022/12/31 10:26:47;;;;;;;;;;;;;;;10.43;79.19;102228.84;5077739;28;20387;-80
2022/12/31 10:29:58;;;;;;;;;;;;;;;10.42;79.47;102221.78;5074612;28;19916;-79
2022/12/31 10:32:58;;;;;;;;;;;;;;;10.40;79.64;102222.06;5090972;28;20395;-80
2022/12/31 10:35:52;;;;;;;;;;;;;;;10.59;78.32;102217.66;5087443;28;19916;-79
2022/12/31 10:38:56;;;;;;;;;;;;;;;10.54;78.41;102205.97;5093005;28;19916;-80
2022/12/31 10:41:59;;;;;;;;;;;;;;;10.70;77.54;102205.63;5098719;28;19919;-82
2022/12/31 10:44:53;;;;;;;;;;;;;;;10.69;78.05;102195.03;5092783;28;19939;-81
2022/12/31 10:47:46;;;;;;;;;;;;;;;10.94;76.64;102194.06;5084540;28;19916;-78
2022/12/31 10:50:31;;;;;;;;;;;;;;;10.85;76.81;102198.47;5091018;28;19916;-77
2022/12/31 10:53:16;;;;;;;;;;;;;;;10.81;77.23;102198.25;5088504;28;19924;-77
2022/12/31 10:56:13;;;;;;;;;;;;;;;10.91;77.18;102206.34;5086242;28;19916;-79
2022/12/31 10:59:13;;;;;;;;;;;;;;;10.90;78.06;102207.44;5089136;28;20291;-78
2022/12/31 11:02:10;;;;;;;;;;;;;;;10.88;77.61;102204.16;5082607;28;19916;-78
2022/12/31 11:05:18;;;;;;;;;;;;;;;11.04;76.44;102207.63;5085521;28;19916;-79
2022/12/31 11:08:14;;;;;;;;;;;;;;;11.22;75.88;102193.38;5098816;28;19916;-79
2022/12/31 11:11:01;;;;;;;;;;;;;;;11.10;75.86;102204.59;5091258;28;19916;-79
2022/12/31 11:14:06;;;;;;;;;;;;;;;11.02;76.50;102205.16;5087288;28;19920;-78
2022/12/31 11:16:50;;;;;;;;;;;;;;;11.04;76.45;102211.16;5091872;28;19920;-78
2022/12/31 11:19:47;;;;;;;;;;;;;;;11.12;76.21;102210.56;5096040;28;19924;-79
2022/12/31 11:22:41;;;;;;;;;;;;;;;11.12;76.03;102207.81;5091623;28;19916;-83
2022/12/31 11:25:31;;;;;;;;;;;;;;;11.09;76.62;102211.13;5081877;28;20307;-81
2022/12/31 11:28:19;;;;;;;;;;;;;;;10.94;76.77;102208.50;5094582;28;19916;-82
2022/12/31 11:31:03;;;;;;;;;;;;;;;11.04;76.60;102207.63;5087422;28;20307;-82
2022/12/31 11:34:09;;;;;;;;;;;;;;;10.97;77.03;102202.47;5089193;28;19936;-80
2022/12/31 11:37:12;;;;;;;;;;;;;;;10.99;77.29;102205.75;5088188;28;19920;-83
2022/12/31 11:39:57;;;;;;;;;;;;;;;10.87;77.50;102207.97;5096457;28;20314;-75
2022/12/31 11:42:49;;;;;;;;;;;;;;;10.89;78.64;102205.00;5104251;28;19915;-79
2022/12/31 11:45:43;;;;;;;;;;;;;;;10.95;78.10;102195.72;5087566;28;19920;-79
2022/12/31 11:48:33;;;;;;;;;;;;;;;10.89;77.63;102192.19;5102815;28;19916;-78
2022/12/31 11:51:18;;;;;;;;;;;;;;;10.93;78.28;102201.41;5091015;28;19920;-79
2022/12/31 11:54:23;;;;;;;;;;;;;;;11.02;77.91;102201.66;5076494;28;20310;-78
2022/12/31 11:57:26;;;;;;;;;;;;;;;10.87;79.07;102186.22;5094601;28;19916;-75
2022/12/31 12:00:13;;;;;;;;;;;;;;;11.02;78.87;102179.88;5085837;28;19924;-78
2022/12/31 12:03:02;;;;;;;;;;;;;;;11.18;77.93;102165.06;5087335;28;19916;-77
2022/12/31 12:05:46;;;;;;;;;;;;;;;11.29;77.18;102154.91;5094110;28;19916;-77
2022/12/31 12:08:31;;;;;;;;;;;;;;;11.46;76.45;102177.09;5083805;28;20299;-75
2022/12/31 12:11:28;;;;;;;;;;;;;;;11.49;76.43;102165.63;5090473;28;20383;-77
2022/12/31 12:14:20;;;;;;;;;;;;;;;11.19;77.49;102149.53;5094973;28;19920;-78
2022/12/31 12:17:09;;;;;;;;;;;;;;;11.55;76.87;102159.03;5096776;28;19920;-77
2022/12/31 12:19:55;;;;;;;;;;;;;;;11.57;75.71;102165.84;5088148;28;20395;-77
2022/12/31 12:22:46;;;;;;;;;;;;;;;11.61;76.44;102148.91;5095866;28;20379;-78
2022/12/31 12:25:38;;;;;;;;;;;;;;;11.57;75.60;102148.69;5080224;28;19916;-77
2022/12/31 12:28:25;;;;;;;;;;;;;;;11.69;75.22;102149.09;5099225;28;20386;-77
2022/12/31 12:31:20;;;;;;;;;;;;;;;11.85;74.81;102147.88;5091606;28;19916;-76
2022/12/31 12:34:05;;;;;;;;;;;;;;;11.91;74.06;102156.81;5075093;28;20283;-77
2022/12/31 12:36:50;;;;;;;;;;;;;;;11.54;74.59;102151.97;5084824;28;19920;-77
2022/12/31 12:39:34;;;;;;;;;;;;;;;11.30;75.71;102145.63;5088289;28;19920;-77
2022/12/31 12:42:19;;;;;;;;;;;;;;;11.50;75.44;102145.47;5090422;28;19920;-76
2022/12/31 12:45:06;;;;;;;;;;;;;;;11.69;74.64;102142.81;5094324;28;19920;-77
2022/12/31 12:47:55;;;;;;;;;;;;;;;11.61;76.05;102152.44;5095566;28;19920;-76
2022/12/31 12:50:45;;;;;;;;;;;;;;;11.93;74.56;102147.25;5125070;22;19925;-77
2022/12/31 12:53:32;;;;;;;;;;;;;;;11.98;73.10;102152.66;5051649;28;19921;-77
2022/12/31 12:56:25;;;;;;;;;;;;;;;11.95;72.64;102147.75;5056134;28;19916;-77
2022/12/31 12:59:16;;;;;;;;;;;;;;;11.91;73.18;102151.34;5049684;28;20391;-78
2022/12/31 13:02:03;;;;;;;;;;;;;;;12.13;72.77;102146.22;5030268;28;20100;-77
2022/12/31 13:04:54;;;;;;;;;;;;;;;12.15;73.03;102151.34;5054393;28;20634;-78
2022/12/31 13:07:41;;;;;;;;;;;;;;;12.36;72.29;102147.28;5025665;28;19924;-77
2022/12/31 13:10:26;;;;;;;;;;;;;;;12.26;72.79;102150.13;5024718;28;19918;-78
2022/12/31 13:13:16;;;;;;;;;;;;;;;12.08;73.92;102149.00;5052443;28;20324;-79
2022/12/31 13:16:21;;;;;;;;;;;;;;;12.20;73.24;102143.13;5027879;28;19921;-80
2022/12/31 13:19:06;;;;;;;;;;;;;;;12.13;73.77;102148.13;5029768;28;19917;-80
2022/12/31 13:22:02;;;;;;;;;;;;;;;11.98;74.66;102146.38;5036900;28;19920;-79
2022/12/31 13:24:49;;;;;;;;;;;;;;;12.09;74.32;102149.81;5037142;28;19921;-80
2022/12/31 13:27:36;;;;;;;;;;;;;;;11.92;74.72;102153.81;5030882;28;19917;-80
2022/12/31 13:30:43;;;;;;;;;;;;;;;11.93;74.85;102143.72;5028620;28;19925;-79
2022/12/31 13:33:33;;;;;;;;;;;;;;;11.89;73.93;102143.47;5029238;28;19924;-80
2022/12/31 13:36:19;;;;;;;;;;;;;;;11.78;75.02;102139.25;5029916;28;19921;-80
2022/12/31 13:39:06;;;;;;;;;;;;;;;11.94;74.69;102143.41;5028339;28;20300;-79
2022/12/31 13:42:04;;;;;;;;;;;;;;;11.93;73.98;102149.97;5045158;28;19921;-80
2022/12/31 13:45:00;;;;;;;;;;;;;;;11.83;73.73;102143.81;5035642;28;19917;-79
2022/12/31 13:47:47;;;;;;;;;;;;;;;11.68;73.34;102155.66;5029904;28;19917;-80
2022/12/31 13:50:37;;;;;;;;;;;;;;;11.82;72.72;102158.53;5035789;28;19917;-79
2022/12/31 13:53:28;;;;;;;;;;;;;;;11.65;74.20;102158.13;5031551;28;19921;-79
2022/12/31 13:56:20;;;;;;;;;;;;;;;11.55;75.04;102159.03;5034791;28;20312;-79
2022/12/31 13:59:14;;;;;;;;;;;;;;;11.44;75.90;102161.03;5030993;28;19921;-79
2022/12/31 14:02:11;;;;;;;;;;;;;;;11.51;76.91;102161.53;5020981;28;19918;-80
2022/12/31 14:04:59;;;;;;;;;;;;;;;11.54;75.48;102165.56;5031424;28;20380;-78
2022/12/31 14:07:51;;;;;;;;;;;;;;;11.33;76.91;102167.66;5027432;28;20308;-78
2022/12/31 14:10:44;;;;;;;;;;;;;;;11.45;76.45;102178.19;5031179;28;19921;-77
2022/12/31 14:13:52;;;;;;;;;;;;;;;11.40;76.95;102170.06;5031469;28;19921;-77
2022/12/31 14:16:37;;;;;;;;;;;;;;;11.28;77.87;102175.88;5024681;28;19917;-78
2022/12/31 14:19:38;;;;;;;;;;;;;;;11.33;76.88;102185.91;5017805;28;19917;-78
2022/12/31 14:22:30;;;;;;;;;;;;;;;11.35;76.40;102197.34;5023282;28;20381;-77
2022/12/31 14:25:24;;;;;;;;;;;;;;;11.45;75.89;102191.81;5026552;28;19921;-78
2022/12/31 14:28:15;;;;;;;;;;;;;;;11.47;75.84;102205.97;5038902;28;19917;-78
2022/12/31 14:31:10;;;;;;;;;;;;;;;11.33;76.25;102197.63;5025697;28;19921;-78
2022/12/31 14:34:01;;;;;;;;;;;;;;;11.29;76.52;102193.84;5022877;28;19925;-78
2022/12/31 14:36:55;;;;;;;;;;;;;;;11.26;77.52;102216.19;5035871;28;19917;-78
2022/12/31 14:40:00;;;;;;;;;;;;;;;11.29;77.19;102222.97;5050825;28;19921;-78
2022/12/31 14:42:59;;;;;;;;;;;;;;;11.34;77.22;102220.22;5040811;28;19924;-79
2022/12/31 14:45:44;;;;;;;;;;;;;;;11.17;77.72;102217.09;5025694;28;19916;-80
2022/12/31 14:48:55;;;;;;;;;;;;;;;10.95;78.28;102222.91;5037550;28;19916;-81
2022/12/31 14:51:39;;;;;;;;;;;;;;;11.11;78.61;102222.56;5035356;28;19917;-79